createdAt,value
2017-08-28T00:00:32.859Z,81.00
2017-08-28T00:03:01.240Z,81.10
2017-08-28T00:05:30.046Z,81.10
2017-08-28T00:07:58.407Z,81.20
2017-08-28T00:10:26.785Z,81.30
2017-08-28T00:12:55.184Z,81.20
2017-08-28T00:15:23.566Z,81.50
2017-08-28T00:17:51.917Z,81.70
2017-08-28T00:20:20.730Z,81.80
2017-08-28T00:22:49.123Z,81.80
2017-08-28T00:25:17.466Z,81.80
2017-08-28T00:27:45.912Z,81.80
2017-08-28T00:30:14.232Z,81.90
2017-08-28T00:32:42.588Z,81.80
2017-08-28T00:35:10.988Z,81.80
2017-08-28T00:37:39.300Z,81.80
2017-08-28T00:40:07.668Z,82.00
2017-08-28T00:42:36.256Z,82.10
2017-08-28T00:45:04.587Z,82.10
2017-08-28T00:47:32.937Z,82.20
2017-08-28T00:50:02.067Z,82.10
2017-08-28T00:52:30.956Z,82.00
2017-08-28T00:54:59.340Z,82.20
2017-08-28T00:57:28.184Z,82.40
2017-08-28T00:59:56.510Z,82.50
2017-08-28T01:02:25.054Z,82.50
2017-08-28T01:04:53.860Z,82.20
2017-08-28T01:07:22.364Z,82.20
2017-08-28T01:09:50.750Z,82.30
2017-08-28T01:12:20.350Z,82.50
2017-08-28T01:14:48.718Z,82.50
2017-08-28T01:17:17.097Z,82.50
2017-08-28T01:19:46.841Z,82.60
2017-08-28T01:22:15.270Z,82.70
2017-08-28T01:24:43.617Z,82.50
2017-08-28T01:27:12.285Z,82.60
2017-08-28T01:29:40.610Z,82.80
2017-08-28T01:32:09.710Z,82.90
2017-08-28T01:34:38.446Z,82.80
2017-08-28T01:37:06.772Z,82.90
2017-08-28T01:39:35.096Z,83.00
2017-08-28T01:42:03.738Z,83.00
2017-08-28T01:44:32.704Z,82.90
2017-08-28T01:47:01.941Z,83.00
2017-08-28T01:49:30.420Z,83.00
2017-08-28T01:51:58.792Z,83.10
2017-08-28T01:54:27.133Z,82.60
2017-08-28T01:56:55.857Z,83.10
2017-08-28T01:59:24.247Z,83.10
2017-08-28T02:01:52.608Z,83.00
2017-08-28T02:04:21.398Z,82.60
2017-08-28T02:06:49.754Z,82.50
2017-08-28T02:09:18.080Z,82.60
2017-08-28T02:11:46.641Z,83.00
2017-08-28T02:14:14.986Z,83.20
2017-08-28T02:16:44.083Z,83.20
2017-08-28T02:19:12.873Z,83.00
2017-08-28T02:21:41.202Z,82.80
2017-08-28T02:24:09.667Z,82.90
2017-08-28T02:26:39.190Z,82.60
2017-08-28T02:29:07.512Z,82.60
2017-08-28T02:31:35.829Z,82.80
2017-08-28T02:34:04.237Z,82.90
2017-08-28T02:36:32.552Z,83.00
2017-08-28T02:39:00.891Z,83.20
2017-08-28T02:41:29.477Z,83.80
2017-08-28T02:43:57.828Z,83.20
2017-08-28T02:46:26.209Z,83.10
2017-08-28T02:48:54.615Z,82.50
2017-08-28T02:51:23.023Z,82.90
2017-08-28T02:53:51.548Z,83.10
2017-08-28T02:56:20.448Z,83.00
2017-08-28T02:58:48.808Z,83.10
2017-08-28T03:01:17.933Z,82.80
2017-08-28T03:03:46.685Z,83.10
2017-08-28T03:06:15.036Z,83.30
2017-08-28T03:08:43.385Z,83.30
2017-08-28T03:11:12.072Z,83.70
2017-08-28T03:13:40.448Z,83.90
2017-08-28T03:16:08.784Z,83.90
2017-08-28T03:18:37.600Z,84.30
2017-08-28T03:21:05.936Z,84.10
2017-08-28T03:23:34.276Z,83.80
2017-08-28T03:26:02.873Z,83.50
2017-08-28T03:28:31.217Z,83.90
2017-08-28T03:30:59.683Z,83.90
2017-08-28T03:33:28.360Z,83.80
2017-08-28T03:35:56.718Z,83.80
2017-08-28T03:38:25.109Z,83.80
2017-08-28T03:40:53.688Z,83.80
2017-08-28T03:43:22.317Z,83.40
2017-08-28T03:45:50.799Z,83.30
2017-08-28T03:48:19.532Z,83.40
2017-08-28T03:50:47.865Z,83.40
2017-08-28T03:53:16.192Z,83.40
2017-08-28T03:55:46.110Z,83.40
2017-08-28T03:58:14.488Z,83.30
2017-08-28T04:00:42.877Z,83.10
2017-08-28T04:03:11.367Z,83.10
2017-08-28T04:05:39.730Z,82.70
2017-08-28T04:08:08.113Z,82.80
2017-08-28T04:10:36.648Z,82.80
2017-08-28T04:13:04.969Z,83.00
2017-08-28T04:15:33.313Z,82.60
2017-08-28T04:18:01.983Z,82.70
2017-08-28T04:20:30.362Z,83.00
2017-08-28T04:22:58.744Z,83.00
2017-08-28T04:25:27.227Z,82.40
2017-08-28T04:27:55.627Z,82.60
2017-08-28T04:30:24.089Z,82.50
2017-08-28T04:32:52.795Z,82.60
2017-08-28T04:35:21.331Z,82.60
2017-08-28T04:37:49.664Z,82.60
2017-08-28T04:40:18.050Z,82.80
2017-08-28T04:42:46.382Z,83.70
2017-08-28T04:45:14.718Z,83.30
2017-08-28T04:47:43.259Z,83.40
2017-08-28T04:50:11.597Z,83.20
2017-08-28T04:52:39.999Z,83.20
2017-08-28T04:55:08.543Z,82.90
2017-08-28T04:57:36.884Z,82.70
2017-08-28T05:00:05.223Z,82.90
2017-08-28T05:02:33.861Z,82.80
2017-08-28T05:05:02.213Z,82.70
2017-08-28T05:07:30.564Z,82.70
2017-08-28T05:09:59.280Z,82.80
2017-08-28T05:12:27.629Z,82.60
2017-08-28T05:14:56.022Z,82.60
2017-08-28T05:17:25.571Z,82.70
2017-08-28T05:19:54.340Z,82.70
2017-08-28T05:22:22.837Z,82.30
2017-08-28T05:24:52.636Z,82.20
2017-08-28T05:27:21.301Z,82.60
2017-08-28T05:29:50.271Z,82.70
2017-08-28T05:32:19.352Z,82.80
2017-08-28T05:34:47.677Z,83.00
2017-08-28T05:37:16.037Z,83.10
2017-08-28T05:39:45.460Z,83.40
2017-08-28T05:42:13.792Z,83.10
2017-08-28T05:44:42.175Z,83.10
2017-08-28T05:47:10.851Z,83.30
2017-08-28T05:49:39.172Z,83.20
2017-08-28T05:52:07.523Z,82.90
2017-08-28T05:54:35.909Z,82.90
2017-08-28T05:57:04.269Z,83.00
2017-08-28T05:59:32.636Z,82.90
2017-08-28T06:02:01.378Z,82.80
2017-08-28T06:04:29.736Z,82.60
2017-08-28T06:06:58.122Z,82.50
2017-08-28T06:09:26.727Z,82.20
2017-08-28T06:11:55.183Z,82.00
2017-08-28T06:14:23.517Z,81.90
2017-08-28T06:16:51.978Z,81.80
2017-08-28T06:19:20.657Z,82.00
2017-08-28T06:21:49.012Z,82.00
2017-08-28T06:24:17.758Z,82.10
2017-08-28T06:26:46.106Z,82.10
2017-08-28T06:29:14.456Z,81.80
2017-08-28T06:31:43.307Z,81.60
2017-08-28T06:34:11.680Z,81.30
2017-08-28T06:36:39.993Z,81.00
2017-08-28T06:39:08.546Z,80.60
2017-08-28T06:41:36.866Z,80.70
2017-08-28T06:44:05.233Z,80.10
2017-08-28T06:46:33.817Z,79.80
2017-08-28T06:49:02.151Z,79.60
2017-08-28T06:51:30.536Z,79.60
2017-08-28T06:53:59.424Z,79.30
2017-08-28T06:56:27.747Z,79.00
2017-08-28T06:58:56.144Z,79.00
2017-08-28T07:01:25.870Z,78.10
2017-08-28T07:03:54.678Z,78.60
2017-08-28T07:06:23.261Z,78.80
2017-08-28T07:08:52.864Z,78.50
2017-08-28T07:11:21.651Z,78.00
2017-08-28T07:13:50.030Z,78.00
2017-08-28T07:16:28.604Z,77.50
2017-08-28T07:18:56.984Z,76.90
2017-08-28T07:21:25.304Z,76.40
2017-08-28T07:23:53.950Z,75.90
2017-08-28T07:26:22.779Z,75.70
2017-08-28T07:28:51.409Z,75.50
2017-08-28T07:31:20.158Z,74.70
2017-08-28T07:33:49.379Z,74.30
2017-08-28T07:36:17.725Z,74.30
2017-08-28T07:38:46.327Z,74.60
2017-08-28T07:41:15.335Z,74.00
2017-08-28T07:43:43.641Z,73.60
2017-08-28T07:46:12.950Z,73.70
2017-08-28T07:48:41.283Z,73.70
2017-08-28T07:51:09.662Z,72.70
2017-08-28T07:53:38.467Z,71.50
2017-08-28T07:56:07.793Z,71.20
2017-08-28T07:58:36.478Z,71.70
2017-08-28T08:01:05.113Z,71.80
2017-08-28T08:03:34.265Z,71.00
2017-08-28T08:06:02.909Z,70.60
2017-08-28T08:08:31.426Z,69.60
2017-08-28T08:10:59.836Z,69.30
2017-08-28T08:13:28.260Z,68.90
2017-08-28T08:15:56.695Z,69.30
2017-08-28T08:18:25.174Z,68.50
2017-08-28T08:20:53.528Z,67.20
2017-08-28T08:23:22.485Z,66.60
2017-08-28T08:25:51.927Z,66.70
2017-08-28T08:28:20.349Z,66.10
2017-08-28T08:30:48.923Z,64.90
2017-08-28T08:33:23.028Z,64.80
2017-08-28T08:35:51.942Z,64.50
2017-08-28T08:38:20.527Z,64.00
2017-08-28T08:40:48.924Z,64.40
2017-08-28T08:43:17.760Z,64.60
2017-08-28T08:45:46.609Z,63.50
2017-08-28T08:48:15.156Z,62.80
2017-08-28T08:50:44.482Z,63.10
2017-08-28T08:53:13.424Z,62.50
2017-08-28T08:55:42.019Z,62.90
2017-08-28T08:58:10.922Z,61.60
2017-08-28T09:00:39.574Z,62.20
2017-08-28T09:03:08.203Z,61.70
2017-08-28T09:05:36.775Z,62.80
2017-08-28T09:08:07.199Z,61.50
2017-08-28T09:10:35.628Z,61.50
2017-08-28T09:13:05.162Z,61.10
2017-08-28T09:15:33.633Z,60.60
2017-08-28T09:18:03.014Z,59.20
2017-08-28T09:20:31.883Z,56.40
2017-08-28T09:23:01.313Z,56.70
2017-08-28T09:25:30.415Z,55.20
2017-08-28T09:27:59.144Z,52.10
2017-08-28T09:30:27.698Z,51.40
2017-08-28T09:32:56.328Z,48.10
2017-08-28T09:35:25.180Z,45.80
2017-08-28T09:37:53.616Z,46.30
2017-08-28T09:40:22.802Z,45.60
2017-08-28T09:42:51.373Z,45.80
2017-08-28T09:45:19.808Z,47.90
2017-08-28T09:47:48.129Z,48.90
2017-08-28T09:50:17.484Z,49.80
2017-08-28T09:52:45.820Z,50.10
2017-08-28T09:55:14.172Z,49.70
2017-08-28T09:57:46.191Z,50.80
2017-08-28T10:00:15.436Z,51.90
2017-08-28T10:02:43.770Z,51.30
2017-08-28T10:05:12.292Z,51.50
2017-08-28T10:07:40.609Z,50.20
2017-08-28T10:10:10.101Z,51.50
2017-08-28T10:12:38.736Z,52.20
2017-08-28T10:15:07.064Z,52.10
2017-08-28T10:17:36.160Z,49.90
2017-08-28T10:20:05.857Z,45.50
2017-08-28T10:22:34.184Z,45.50
2017-08-28T10:25:02.497Z,46.10
2017-08-28T10:27:30.708Z,45.80
2017-08-28T10:29:59.823Z,45.60
2017-08-28T10:32:28.152Z,45.60
2017-08-28T10:34:56.854Z,46.30
2017-08-28T10:37:25.238Z,47.00
2017-08-28T10:39:53.836Z,48.30
2017-08-28T10:42:22.750Z,48.90
2017-08-28T10:44:51.184Z,48.80
2017-08-28T10:47:19.551Z,46.90
2017-08-28T10:49:48.015Z,47.60
2017-08-28T10:52:17.381Z,47.80
2017-08-28T10:54:45.717Z,49.40
2017-08-28T10:57:14.607Z,49.70
2017-08-28T10:59:42.966Z,51.10
2017-08-28T11:02:11.305Z,51.40
2017-08-28T11:04:39.885Z,51.30
2017-08-28T11:07:08.323Z,50.10
2017-08-28T11:09:36.762Z,49.90
2017-08-28T11:12:05.444Z,49.50
2017-08-28T11:14:33.765Z,49.30
2017-08-28T11:17:02.170Z,49.30
2017-08-28T11:19:30.685Z,50.10
2017-08-28T11:21:59.156Z,50.00
2017-08-28T11:24:27.498Z,48.40
2017-08-28T11:26:56.081Z,48.00
2017-08-28T11:29:26.015Z,47.30
2017-08-28T11:31:54.508Z,45.40
2017-08-28T11:34:23.355Z,44.40
2017-08-28T11:36:51.789Z,44.00
2017-08-28T11:39:21.262Z,44.80
2017-08-28T11:41:50.052Z,46.60
2017-08-28T11:44:18.702Z,48.70
2017-08-28T11:46:49.541Z,49.40
2017-08-28T11:49:18.771Z,49.40
2017-08-28T11:51:47.216Z,49.70
2017-08-28T11:54:15.572Z,50.50
2017-08-28T11:56:44.539Z,50.60
2017-08-28T11:59:12.863Z,50.00
2017-08-28T12:01:41.223Z,49.80
2017-08-28T12:04:09.577Z,50.60
2017-08-28T12:06:39.698Z,49.60
2017-08-28T12:09:08.061Z,49.50
2017-08-28T12:11:36.628Z,49.70
2017-08-28T12:14:04.996Z,49.70
2017-08-28T12:16:33.361Z,50.30
2017-08-28T12:19:02.255Z,49.60
2017-08-28T12:21:30.805Z,47.60
2017-08-28T12:24:00.549Z,46.40
2017-08-28T12:26:29.267Z,45.30
2017-08-28T12:28:57.724Z,44.80
2017-08-28T12:31:26.095Z,44.70
2017-08-28T12:33:54.793Z,44.20
2017-08-28T12:36:23.410Z,44.60
2017-08-28T12:38:51.746Z,44.50
2017-08-28T12:41:20.301Z,46.00
2017-08-28T12:43:48.728Z,46.60
2017-08-28T12:46:17.116Z,46.80
2017-08-28T12:48:46.614Z,47.40
2017-08-28T12:51:14.937Z,48.80
2017-08-28T12:53:43.253Z,49.10
2017-08-28T12:56:12.822Z,49.70
2017-08-28T12:58:41.347Z,50.30
2017-08-28T13:01:09.744Z,50.30
2017-08-28T13:03:38.914Z,51.00
2017-08-28T13:06:07.296Z,51.60
2017-08-28T13:08:36.422Z,51.00
2017-08-28T13:11:05.246Z,49.10
2017-08-28T13:13:33.731Z,47.70
2017-08-28T13:16:02.071Z,46.00
2017-08-28T13:18:30.526Z,45.40
2017-08-28T13:21:00.910Z,42.20
2017-08-28T13:23:29.243Z,41.70
2017-08-28T13:25:58.634Z,40.70
2017-08-28T13:28:27.023Z,41.20
2017-08-28T13:30:55.382Z,42.00
2017-08-28T13:33:24.146Z,42.30
2017-08-28T13:35:52.500Z,42.20
2017-08-28T13:38:20.856Z,42.50
2017-08-28T13:40:50.545Z,41.80
2017-08-28T13:43:18.865Z,41.40
2017-08-28T13:45:47.311Z,41.00
2017-08-28T13:48:15.830Z,41.00
2017-08-28T13:50:44.158Z,39.70
2017-08-28T13:53:12.475Z,40.00
2017-08-28T13:55:41.205Z,40.10
2017-08-28T13:58:09.568Z,40.30
2017-08-28T14:00:37.930Z,40.90
2017-08-28T14:03:06.614Z,41.30
2017-08-28T14:05:34.956Z,41.50
2017-08-28T14:08:04.147Z,41.30
2017-08-28T14:10:32.674Z,39.80
2017-08-28T14:13:01.116Z,41.00
2017-08-28T14:15:29.458Z,41.80
2017-08-28T14:17:58.457Z,43.50
2017-08-28T14:20:26.870Z,44.30
2017-08-28T14:22:55.392Z,45.10
2017-08-28T14:25:23.953Z,44.70
2017-08-28T14:27:52.309Z,43.10
2017-08-28T14:30:20.793Z,42.60
2017-08-28T14:32:49.422Z,42.90
2017-08-28T14:35:18.101Z,43.40
2017-08-28T14:37:46.458Z,43.80
2017-08-28T14:40:15.030Z,44.20
2017-08-28T14:42:43.381Z,44.80
2017-08-28T14:45:11.705Z,44.60
2017-08-28T14:47:40.462Z,44.80
2017-08-28T14:50:08.809Z,45.20
2017-08-28T14:52:37.139Z,45.50
2017-08-28T14:55:05.700Z,45.80
2017-08-28T14:57:34.040Z,45.40
2017-08-28T15:00:02.465Z,44.20
2017-08-28T15:02:30.914Z,43.70
2017-08-28T15:04:59.346Z,42.70
2017-08-28T15:07:27.726Z,42.20
2017-08-28T15:09:56.445Z,41.60
2017-08-28T15:12:24.884Z,41.20
2017-08-28T15:14:53.294Z,40.80
2017-08-28T15:17:21.971Z,40.00
2017-08-28T15:19:50.426Z,39.90
2017-08-28T15:22:18.747Z,38.50
2017-08-28T15:24:47.494Z,38.00
2017-08-28T15:27:15.867Z,38.70
2017-08-28T15:29:44.297Z,40.20
2017-08-28T15:32:12.976Z,41.70
2017-08-28T15:34:41.308Z,43.20
2017-08-28T15:37:09.660Z,44.50
2017-08-28T15:39:41.550Z,46.00
2017-08-28T15:42:09.898Z,46.40
2017-08-28T15:44:38.226Z,47.30
2017-08-28T15:47:06.759Z,47.90
2017-08-28T15:49:35.508Z,47.40
2017-08-28T15:52:03.895Z,47.80
2017-08-28T15:54:32.288Z,48.70
2017-08-28T15:57:00.677Z,48.80
2017-08-28T15:59:29.020Z,48.80
2017-08-28T16:01:57.601Z,49.20
2017-08-28T16:04:26.439Z,49.50
2017-08-28T16:06:54.841Z,50.30
2017-08-28T16:09:23.629Z,50.10
2017-08-28T16:11:51.993Z,50.50
2017-08-28T16:14:20.406Z,50.40
2017-08-28T16:16:50.550Z,50.60
2017-08-28T16:19:19.847Z,50.90
2017-08-28T16:21:48.256Z,50.60
2017-08-28T16:24:16.841Z,50.80
2017-08-28T16:26:45.156Z,50.40
2017-08-28T16:29:13.608Z,50.40
2017-08-28T16:31:42.318Z,50.20
2017-08-28T16:34:10.669Z,50.20
2017-08-28T16:36:39.048Z,50.50
2017-08-28T16:39:08.429Z,50.80
2017-08-28T16:41:36.757Z,51.20
2017-08-28T16:44:05.129Z,50.80
2017-08-28T16:46:33.597Z,50.70
2017-08-28T16:49:01.909Z,51.10
2017-08-28T16:51:30.330Z,51.30
2017-08-28T16:53:58.957Z,50.70
2017-08-28T16:56:27.341Z,50.70
2017-08-28T16:58:57.555Z,50.60
2017-08-28T17:01:27.075Z,50.50
2017-08-28T17:03:55.477Z,50.80
2017-08-28T17:06:24.665Z,51.10
2017-08-28T17:08:53.324Z,51.10
2017-08-28T17:11:21.800Z,51.20
2017-08-28T17:13:50.138Z,51.40
2017-08-28T17:16:19.522Z,51.40
2017-08-28T17:18:47.870Z,51.50
2017-08-28T17:21:16.225Z,51.80
2017-08-28T17:23:50.452Z,52.00
2017-08-28T17:26:18.765Z,52.50
2017-08-28T17:28:47.128Z,52.60
2017-08-28T17:31:15.778Z,52.80
2017-08-28T17:33:44.120Z,53.10
2017-08-28T17:36:13.459Z,53.20
2017-08-28T17:38:43.113Z,53.10
2017-08-28T17:41:11.441Z,53.50
2017-08-28T17:43:39.763Z,53.50
2017-08-28T17:46:09.509Z,53.70
2017-08-28T17:48:37.892Z,54.00
2017-08-28T17:51:06.230Z,54.40
2017-08-28T17:53:41.374Z,54.40
2017-08-28T17:56:11.702Z,54.80
2017-08-28T17:58:40.080Z,55.10
2017-08-28T18:01:09.666Z,55.30
2017-08-28T18:03:38.963Z,55.70
2017-08-28T18:06:07.273Z,55.90
2017-08-28T18:08:35.830Z,56.30
2017-08-28T18:11:04.858Z,56.50
2017-08-28T18:13:33.177Z,56.60
2017-08-28T18:16:01.750Z,56.90
2017-08-28T18:18:30.094Z,57.00
2017-08-28T18:20:58.530Z,57.20
2017-08-28T18:23:27.006Z,57.60
2017-08-28T18:25:55.429Z,57.90
2017-08-28T18:28:24.274Z,58.30
2017-08-28T18:30:53.166Z,58.50
2017-08-28T18:33:22.054Z,58.90
2017-08-28T18:35:50.534Z,59.30
2017-08-28T18:38:19.267Z,59.80
2017-08-28T18:40:47.592Z,60.10
2017-08-28T18:43:16.057Z,60.10
2017-08-28T18:45:44.710Z,60.20
2017-08-28T18:48:13.042Z,60.50
2017-08-28T18:50:41.366Z,60.70
2017-08-28T18:53:09.800Z,61.10
2017-08-28T18:55:38.178Z,61.30
2017-08-28T18:58:06.505Z,61.50
2017-08-28T19:00:35.038Z,61.80
2017-08-28T19:03:03.518Z,62.10
2017-08-28T19:05:32.465Z,62.50
2017-08-28T19:08:01.215Z,63.10
2017-08-28T19:10:30.696Z,63.40
2017-08-28T19:12:59.179Z,63.50
2017-08-28T19:15:28.794Z,63.80
2017-08-28T19:17:57.152Z,64.00
2017-08-28T19:20:25.546Z,64.20
2017-08-28T19:22:54.989Z,64.60
2017-08-28T19:25:23.417Z,64.70
2017-08-28T19:27:51.803Z,65.10
2017-08-28T19:30:20.434Z,64.90
2017-08-28T19:32:49.750Z,65.20
2017-08-28T19:35:25.994Z,65.40
2017-08-28T19:37:55.268Z,65.50
2017-08-28T19:40:23.629Z,66.20
2017-08-28T19:42:52.183Z,66.00
2017-08-28T19:45:20.557Z,66.30
2017-08-28T19:47:48.911Z,66.60
2017-08-28T19:50:18.498Z,67.00
2017-08-28T19:52:47.746Z,67.30
2017-08-28T19:55:16.134Z,67.70
2017-08-28T19:57:45.515Z,68.10
2017-08-28T20:00:13.928Z,68.10
2017-08-28T20:02:48.894Z,68.50
2017-08-28T20:05:17.261Z,68.80
2017-08-28T20:07:45.742Z,69.20
2017-08-28T20:10:14.291Z,69.10
2017-08-28T20:12:42.707Z,69.10
2017-08-28T20:15:12.296Z,69.60
2017-08-28T20:17:40.933Z,69.70
2017-08-28T20:20:09.288Z,69.90
2017-08-28T20:22:37.605Z,70.70
2017-08-28T20:25:06.969Z,70.50
2017-08-28T20:27:35.308Z,70.50
2017-08-28T20:30:03.653Z,70.40
2017-08-28T20:32:32.250Z,70.50
2017-08-28T20:35:00.658Z,70.50
2017-08-28T20:37:29.423Z,70.70
2017-08-28T20:39:57.948Z,70.90
2017-08-28T20:42:26.289Z,71.30
2017-08-28T20:44:54.710Z,71.40
2017-08-28T20:47:23.465Z,71.40
2017-08-28T20:49:51.936Z,71.60
2017-08-28T20:52:20.743Z,71.70
2017-08-28T20:54:51.177Z,72.00
2017-08-28T20:57:19.540Z,72.00
2017-08-28T20:59:47.962Z,71.90
2017-08-28T21:02:16.393Z,71.90
2017-08-28T21:04:44.931Z,71.90
2017-08-28T21:07:13.273Z,71.90
2017-08-28T21:09:41.820Z,71.90
2017-08-28T21:12:10.422Z,71.70
2017-08-28T21:14:38.759Z,71.70
2017-08-28T21:17:07.221Z,71.70
2017-08-28T21:19:35.531Z,71.50
2017-08-28T21:22:04.122Z,71.40
2017-08-28T21:24:32.706Z,71.60
2017-08-28T21:27:01.298Z,71.40
2017-08-28T21:29:30.399Z,71.60
2017-08-28T21:31:59.139Z,71.60
2017-08-28T21:34:27.593Z,71.40
2017-08-28T21:36:55.970Z,71.90
2017-08-28T21:39:24.506Z,71.50
2017-08-28T21:41:53.517Z,71.30
2017-08-28T21:44:22.028Z,71.30
2017-08-28T21:46:50.813Z,71.60
2017-08-28T21:49:19.187Z,71.70
2017-08-28T21:51:47.647Z,71.70
2017-08-28T21:54:16.414Z,71.70
2017-08-28T21:56:44.756Z,71.60
2017-08-28T21:59:13.150Z,71.60
2017-08-28T22:01:41.864Z,71.80
2017-08-28T22:04:10.173Z,71.70
2017-08-28T22:06:39.364Z,71.80
2017-08-28T22:09:08.709Z,72.00
2017-08-28T22:11:37.033Z,71.80
2017-08-28T22:14:05.366Z,71.80
2017-08-28T22:16:33.810Z,71.80
2017-08-28T22:19:02.567Z,71.70
2017-08-28T22:21:30.989Z,72.50
2017-08-28T22:23:59.372Z,72.00
2017-08-28T22:26:27.851Z,71.80
2017-08-28T22:28:56.213Z,71.60
2017-08-28T22:31:25.329Z,71.30
2017-08-28T22:33:53.792Z,71.30
2017-08-28T22:36:22.610Z,71.50
2017-08-28T22:38:53.651Z,71.40
2017-08-28T22:41:22.101Z,71.30
2017-08-28T22:43:50.590Z,71.20
2017-08-28T22:46:19.888Z,71.20
2017-08-28T22:48:48.261Z,71.00
2017-08-28T22:51:16.619Z,70.80
2017-08-28T22:53:45.264Z,70.80
2017-08-28T22:56:13.582Z,70.60
2017-08-28T22:58:41.966Z,70.70
2017-08-28T23:01:11.416Z,70.60
2017-08-28T23:03:39.742Z,70.60
2017-08-28T23:06:09.859Z,70.40
2017-08-28T23:08:38.961Z,70.40
2017-08-28T23:11:07.302Z,70.40
2017-08-28T23:13:35.720Z,70.40
2017-08-28T23:16:04.265Z,70.50
2017-08-28T23:18:33.165Z,70.40
2017-08-28T23:21:01.471Z,70.40
2017-08-28T23:23:30.074Z,70.40
2017-08-28T23:25:58.507Z,70.40
2017-08-28T23:28:26.934Z,70.30
2017-08-28T23:30:55.654Z,70.30
2017-08-28T23:33:24.299Z,70.20
2017-08-28T23:35:52.796Z,70.00
2017-08-28T23:38:21.213Z,70.10
2017-08-28T23:40:49.538Z,70.30
2017-08-28T23:43:17.875Z,70.80
2017-08-28T23:45:46.257Z,71.10
2017-08-28T23:48:14.574Z,70.40
2017-08-28T23:50:42.897Z,70.40
2017-08-28T23:53:11.544Z,70.50
2017-08-28T23:55:39.974Z,70.70
2017-08-28T23:58:08.321Z,70.90
